sensor_id;sensor_type;location;lat;lon;timestamp;P1;durP1;ratioP1;P2;durP2;ratioP2
8317;SDS011;4196;48.926;8.964;2023-03-15T00:02:41;3.83;;;2.17;;
8317;SDS011;4196;48.926;8.964;2023-03-15T00:05:28;3.87;;;2.43;;
8317;SDS011;4196;48.926;8.964;2023-03-15T00:08:14;5.23;;;2.30;;
8317;SDS011;4196;48.926;8.964;2023-03-15T00:11:01;3.83;;;2.40;;
8317;SDS011;4196;48.926;8.964;2023-03-15T00:13:48;5.33;;;2.80;;
8317;SDS011;4196;48.926;8.964;2023-03-15T00:16:35;3.20;;;2.20;;
8317;SDS011;4196;48.926;8.964;2023-03-15T00:19:21;7.17;;;3.50;;
8317;SDS011;4196;48.926;8.964;2023-03-15T00:22:08;6.97;;;2.90;;
8317;SDS011;4196;48.926;8.964;2023-03-15T00:24:54;9.27;;;3.53;;
8317;SDS011;4196;48.926;8.964;2023-03-15T00:27:41;5.20;;;2.30;;
8317;SDS011;4196;48.926;8.964;2023-03-15T00:30:27;8.47;;;2.77;;
8317;SDS011;4196;48.926;8.964;2023-03-15T00:33:14;5.93;;;2.47;;
8317;SDS011;4196;48.926;8.964;2023-03-15T00:36:02;3.40;;;2.37;;
8317;SDS011;4196;48.926;8.964;2023-03-15T00:38:54;3.13;;;2.10;;
8317;SDS011;4196;48.926;8.964;2023-03-15T00:41:41;5.83;;;2.13;;
8317;SDS011;4196;48.926;8.964;2023-03-15T00:44:30;5.07;;;2.53;;
8317;SDS011;4196;48.926;8.964;2023-03-15T00:47:16;4.13;;;2.00;;
8317;SDS011;4196;48.926;8.964;2023-03-15T00:50:03;2.57;;;1.70;;
8317;SDS011;4196;48.926;8.964;2023-03-15T00:52:50;4.27;;;2.10;;
8317;SDS011;4196;48.926;8.964;2023-03-15T00:55:36;7.13;;;2.53;;
8317;SDS011;4196;48.926;8.964;2023-03-15T00:58:22;4.47;;;1.97;;
8317;SDS011;4196;48.926;8.964;2023-03-15T01:01:20;4.20;;;2.20;;
8317;SDS011;4196;48.926;8.964;2023-03-15T01:04:11;3.50;;;1.77;;
8317;SDS011;4196;48.926;8.964;2023-03-15T01:06:58;3.43;;;1.80;;
8317;SDS011;4196;48.926;8.964;2023-03-15T01:09:44;3.40;;;1.70;;
8317;SDS011;4196;48.926;8.964;2023-03-15T01:12:33;4.97;;;2.90;;
8317;SDS011;4196;48.926;8.964;2023-03-15T01:15:20;4.50;;;2.33;;
8317;SDS011;4196;48.926;8.964;2023-03-15T01:18:06;3.77;;;2.33;;
8317;SDS011;4196;48.926;8.964;2023-03-15T01:20:53;2.50;;;1.87;;
8317;SDS011;4196;48.926;8.964;2023-03-15T01:23:39;3.27;;;2.33;;
8317;SDS011;4196;48.926;8.964;2023-03-15T01:26:26;3.63;;;1.93;;
8317;SDS011;4196;48.926;8.964;2023-03-15T01:29:13;3.97;;;2.00;;
8317;SDS011;4196;48.926;8.964;2023-03-15T01:31:59;3.97;;;1.87;;
8317;SDS011;4196;48.926;8.964;2023-03-15T01:34:46;7.37;;;2.20;;
8317;SDS011;4196;48.926;8.964;2023-03-15T01:37:32;2.60;;;1.83;;
8317;SDS011;4196;48.926;8.964;2023-03-15T01:40:19;2.90;;;1.70;;
8317;SDS011;4196;48.926;8.964;2023-03-15T01:48:47;4.23;;;1.90;;
8317;SDS011;4196;48.926;8.964;2023-03-15T01:54:49;3.47;;;2.07;;
8317;SDS011;4196;48.926;8.964;2023-03-15T01:57:43;2.43;;;1.70;;
8317;SDS011;4196;48.926;8.964;2023-03-15T02:00:35;1.53;;;1.40;;
8317;SDS011;4196;48.926;8.964;2023-03-15T02:03:29;3.97;;;1.70;;
8317;SDS011;4196;48.926;8.964;2023-03-15T02:06:22;4.13;;;1.80;;
8317;SDS011;4196;48.926;8.964;2023-03-15T02:09:13;4.83;;;2.77;;
8317;SDS011;4196;48.926;8.964;2023-03-15T02:12:04;2.10;;;1.50;;
8317;SDS011;4196;48.926;8.964;2023-03-15T02:14:51;1.93;;;1.40;;
8317;SDS011;4196;48.926;8.964;2023-03-15T02:17:42;6.30;;;1.90;;
8317;SDS011;4196;48.926;8.964;2023-03-15T02:20:32;3.47;;;1.60;;
8317;SDS011;4196;48.926;8.964;2023-03-15T02:23:28;19.43;;;3.10;;
8317;SDS011;4196;48.926;8.964;2023-03-15T02:26:22;4.03;;;1.33;;
8317;SDS011;4196;48.926;8.964;2023-03-15T02:29:20;2.77;;;1.57;;
8317;SDS011;4196;48.926;8.964;2023-03-15T02:32:08;2.50;;;1.60;;
8317;SDS011;4196;48.926;8.964;2023-03-15T02:34:54;1.93;;;1.70;;
8317;SDS011;4196;48.926;8.964;2023-03-15T02:37:41;5.80;;;1.80;;
8317;SDS011;4196;48.926;8.964;2023-03-15T02:40:31;4.07;;;2.07;;
8317;SDS011;4196;48.926;8.964;2023-03-15T02:43:19;1.73;;;1.60;;
8317;SDS011;4196;48.926;8.964;2023-03-15T02:46:12;4.77;;;1.90;;
8317;SDS011;4196;48.926;8.964;2023-03-15T02:48:59;5.40;;;2.47;;
8317;SDS011;4196;48.926;8.964;2023-03-15T02:51:47;2.70;;;1.70;;
8317;SDS011;4196;48.926;8.964;2023-03-15T02:54:35;2.00;;;1.47;;
8317;SDS011;4196;48.926;8.964;2023-03-15T02:57:22;4.63;;;2.87;;
8317;SDS011;4196;48.926;8.964;2023-03-15T03:00:09;4.43;;;2.00;;
8317;SDS011;4196;48.926;8.964;2023-03-15T03:03:01;5.20;;;2.00;;
8317;SDS011;4196;48.926;8.964;2023-03-15T03:05:48;2.80;;;1.90;;
8317;SDS011;4196;48.926;8.964;2023-03-15T03:08:34;3.03;;;1.60;;
8317;SDS011;4196;48.926;8.964;2023-03-15T03:11:23;3.97;;;1.77;;
8317;SDS011;4196;48.926;8.964;2023-03-15T03:14:11;2.37;;;1.93;;
8317;SDS011;4196;48.926;8.964;2023-03-15T03:17:00;5.00;;;2.23;;
8317;SDS011;4196;48.926;8.964;2023-03-15T03:19:46;3.63;;;2.40;;
8317;SDS011;4196;48.926;8.964;2023-03-15T03:22:36;4.53;;;2.23;;
8317;SDS011;4196;48.926;8.964;2023-03-15T03:25:24;2.57;;;1.97;;
8317;SDS011;4196;48.926;8.964;2023-03-15T03:28:12;3.77;;;1.87;;
8317;SDS011;4196;48.926;8.964;2023-03-15T03:30:59;4.43;;;2.27;;
8317;SDS011;4196;48.926;8.964;2023-03-15T03:33:47;5.47;;;2.77;;
8317;SDS011;4196;48.926;8.964;2023-03-15T03:36:33;4.27;;;2.63;;
8317;SDS011;4196;48.926;8.964;2023-03-15T03:39:20;5.30;;;3.20;;
8317;SDS011;4196;48.926;8.964;2023-03-15T03:42:07;4.73;;;3.00;;
8317;SDS011;4196;48.926;8.964;2023-03-15T03:44:53;4.37;;;2.47;;
8317;SDS011;4196;48.926;8.964;2023-03-15T03:47:43;2.50;;;2.20;;
8317;SDS011;4196;48.926;8.964;2023-03-15T03:50:29;3.80;;;2.43;;
8317;SDS011;4196;48.926;8.964;2023-03-15T03:53:17;5.97;;;2.37;;
8317;SDS011;4196;48.926;8.964;2023-03-15T03:56:04;4.20;;;2.43;;
8317;SDS011;4196;48.926;8.964;2023-03-15T03:58:52;4.30;;;3.07;;
8317;SDS011;4196;48.926;8.964;2023-03-15T04:01:46;4.50;;;2.70;;
8317;SDS011;4196;48.926;8.964;2023-03-15T04:04:33;6.90;;;2.60;;
8317;SDS011;4196;48.926;8.964;2023-03-15T04:07:21;4.90;;;3.13;;
8317;SDS011;4196;48.926;8.964;2023-03-15T04:10:08;5.47;;;3.00;;
8317;SDS011;4196;48.926;8.964;2023-03-15T04:13:03;7.57;;;2.87;;
8317;SDS011;4196;48.926;8.964;2023-03-15T04:15:50;5.67;;;2.90;;
8317;SDS011;4196;48.926;8.964;2023-03-15T04:18:37;6.63;;;2.30;;
8317;SDS011;4196;48.926;8.964;2023-03-15T04:21:25;5.40;;;2.50;;
8317;SDS011;4196;48.926;8.964;2023-03-15T04:24:25;2.53;;;2.30;;
8317;SDS011;4196;48.926;8.964;2023-03-15T04:27:21;4.03;;;2.80;;
8317;SDS011;4196;48.926;8.964;2023-03-15T04:30:27;6.60;;;2.90;;
8317;SDS011;4196;48.926;8.964;2023-03-15T04:33:43;6.73;;;3.07;;
8317;SDS011;4196;48.926;8.964;2023-03-15T04:36:48;5.10;;;2.80;;
8317;SDS011;4196;48.926;8.964;2023-03-15T04:40:05;5.13;;;3.40;;
8317;SDS011;4196;48.926;8.964;2023-03-15T04:43:02;5.03;;;2.70;;
8317;SDS011;4196;48.926;8.964;2023-03-15T04:46:13;4.20;;;2.80;;
8317;SDS011;4196;48.926;8.964;2023-03-15T04:49:15;6.23;;;3.17;;
8317;SDS011;4196;48.926;8.964;2023-03-15T04:52:20;5.03;;;3.37;;
8317;SDS011;4196;48.926;8.964;2023-03-15T04:55:25;6.03;;;3.07;;
8317;SDS011;4196;48.926;8.964;2023-03-15T04:58:38;6.10;;;3.37;;
8317;SDS011;4196;48.926;8.964;2023-03-15T05:02:03;4.90;;;3.77;;
8317;SDS011;4196;48.926;8.964;2023-03-15T05:04:59;10.50;;;3.50;;
8317;SDS011;4196;48.926;8.964;2023-03-15T05:08:05;5.43;;;3.37;;
8317;SDS011;4196;48.926;8.964;2023-03-15T05:11:29;10.80;;;3.97;;
8317;SDS011;4196;48.926;8.964;2023-03-15T05:14:45;5.93;;;3.13;;
8317;SDS011;4196;48.926;8.964;2023-03-15T05:17:50;4.07;;;3.30;;
8317;SDS011;4196;48.926;8.964;2023-03-15T05:20:58;9.33;;;3.50;;
8317;SDS011;4196;48.926;8.964;2023-03-15T05:24:08;7.10;;;3.90;;
8317;SDS011;4196;48.926;8.964;2023-03-15T05:27:13;9.57;;;4.43;;
8317;SDS011;4196;48.926;8.964;2023-03-15T05:29:59;7.47;;;3.93;;
8317;SDS011;4196;48.926;8.964;2023-03-15T05:33:12;7.77;;;3.57;;
8317;SDS011;4196;48.926;8.964;2023-03-15T05:36:20;9.13;;;3.73;;
8317;SDS011;4196;48.926;8.964;2023-03-15T05:39:26;8.50;;;3.53;;
8317;SDS011;4196;48.926;8.964;2023-03-15T05:42:15;5.57;;;3.27;;
8317;SDS011;4196;48.926;8.964;2023-03-15T05:45:15;5.93;;;3.43;;
8317;SDS011;4196;48.926;8.964;2023-03-15T05:48:14;8.00;;;3.80;;
8317;SDS011;4196;48.926;8.964;2023-03-15T05:51:14;7.70;;;3.80;;
8317;SDS011;4196;48.926;8.964;2023-03-15T05:54:19;9.20;;;3.87;;
8317;SDS011;4196;48.926;8.964;2023-03-15T05:57:20;7.47;;;3.87;;
8317;SDS011;4196;48.926;8.964;2023-03-15T06:00:23;7.77;;;4.17;;
8317;SDS011;4196;48.926;8.964;2023-03-15T06:03:15;8.33;;;3.93;;
8317;SDS011;4196;48.926;8.964;2023-03-15T06:06:17;7.17;;;4.17;;
8317;SDS011;4196;48.926;8.964;2023-03-15T06:09:04;14.93;;;4.77;;
8317;SDS011;4196;48.926;8.964;2023-03-15T06:11:51;9.77;;;4.17;;
8317;SDS011;4196;48.926;8.964;2023-03-15T06:14:39;8.80;;;3.90;;
8317;SDS011;4196;48.926;8.964;2023-03-15T06:17:27;7.83;;;4.07;;
8317;SDS011;4196;48.926;8.964;2023-03-15T06:20:14;12.77;;;5.10;;
8317;SDS011;4196;48.926;8.964;2023-03-15T06:23:00;11.10;;;5.33;;
8317;SDS011;4196;48.926;8.964;2023-03-15T06:25:58;14.83;;;6.27;;
8317;SDS011;4196;48.926;8.964;2023-03-15T06:28:46;8.77;;;3.87;;
8317;SDS011;4196;48.926;8.964;2023-03-15T06:31:33;7.23;;;4.47;;
8317;SDS011;4196;48.926;8.964;2023-03-15T06:34:25;12.43;;;4.47;;
8317;SDS011;4196;48.926;8.964;2023-03-15T06:37:12;6.47;;;4.40;;
8317;SDS011;4196;48.926;8.964;2023-03-15T06:40:12;19.93;;;5.43;;
8317;SDS011;4196;48.926;8.964;2023-03-15T06:42:59;11.60;;;4.13;;
8317;SDS011;4196;48.926;8.964;2023-03-15T06:45:51;9.00;;;4.13;;
8317;SDS011;4196;48.926;8.964;2023-03-15T06:48:39;6.27;;;4.20;;
8317;SDS011;4196;48.926;8.964;2023-03-15T06:51:28;7.50;;;3.37;;
8317;SDS011;4196;48.926;8.964;2023-03-15T06:54:14;8.93;;;4.13;;
8317;SDS011;4196;48.926;8.964;2023-03-15T06:57:02;8.00;;;3.50;;
8317;SDS011;4196;48.926;8.964;2023-03-15T06:59:48;6.07;;;3.40;;
8317;SDS011;4196;48.926;8.964;2023-03-15T07:02:35;6.57;;;3.33;;
8317;SDS011;4196;48.926;8.964;2023-03-15T07:05:22;9.43;;;3.33;;
8317;SDS011;4196;48.926;8.964;2023-03-15T07:08:09;4.23;;;2.97;;
8317;SDS011;4196;48.926;8.964;2023-03-15T07:10:55;4.27;;;2.67;;
8317;SDS011;4196;48.926;8.964;2023-03-15T07:13:42;7.70;;;2.53;;
8317;SDS011;4196;48.926;8.964;2023-03-15T07:16:29;7.13;;;3.33;;
8317;SDS011;4196;48.926;8.964;2023-03-15T07:19:15;4.00;;;2.63;;
8317;SDS011;4196;48.926;8.964;2023-03-15T07:22:02;7.33;;;2.67;;
8317;SDS011;4196;48.926;8.964;2023-03-15T07:24:49;5.07;;;2.87;;
8317;SDS011;4196;48.926;8.964;2023-03-15T07:27:36;4.93;;;2.47;;
8317;SDS011;4196;48.926;8.964;2023-03-15T07:30:22;7.83;;;2.80;;
8317;SDS011;4196;48.926;8.964;2023-03-15T07:33:09;5.77;;;2.70;;
8317;SDS011;4196;48.926;8.964;2023-03-15T07:35:55;4.83;;;2.23;;
8317;SDS011;4196;48.926;8.964;2023-03-15T07:38:42;3.40;;;2.27;;
8317;SDS011;4196;48.926;8.964;2023-03-15T07:41:28;7.13;;;2.83;;
8317;SDS011;4196;48.926;8.964;2023-03-15T07:44:24;5.40;;;2.63;;
8317;SDS011;4196;48.926;8.964;2023-03-15T07:47:10;3.23;;;1.93;;
8317;SDS011;4196;48.926;8.964;2023-03-15T07:49:57;4.00;;;2.00;;
8317;SDS011;4196;48.926;8.964;2023-03-15T07:52:43;3.27;;;2.10;;
8317;SDS011;4196;48.926;8.964;2023-03-15T07:55:33;8.93;;;1.63;;
8317;SDS011;4196;48.926;8.964;2023-03-15T07:58:20;9.47;;;2.67;;
8317;SDS011;4196;48.926;8.964;2023-03-15T08:01:07;4.33;;;1.60;;
8317;SDS011;4196;48.926;8.964;2023-03-15T08:03:54;6.53;;;2.13;;
8317;SDS011;4196;48.926;8.964;2023-03-15T08:06:40;4.17;;;1.70;;
8317;SDS011;4196;48.926;8.964;2023-03-15T08:09:27;5.50;;;2.03;;
8317;SDS011;4196;48.926;8.964;2023-03-15T08:12:13;3.33;;;1.33;;
8317;SDS011;4196;48.926;8.964;2023-03-15T08:15:00;7.93;;;2.33;;
8317;SDS011;4196;48.926;8.964;2023-03-15T08:17:46;6.83;;;1.60;;
8317;SDS011;4196;48.926;8.964;2023-03-15T08:20:34;6.40;;;1.80;;
8317;SDS011;4196;48.926;8.964;2023-03-15T08:23:20;3.93;;;1.90;;
8317;SDS011;4196;48.926;8.964;2023-03-15T08:26:07;2.20;;;1.57;;
8317;SDS011;4196;48.926;8.964;2023-03-15T08:28:53;2.80;;;1.70;;
8317;SDS011;4196;48.926;8.964;2023-03-15T08:31:40;4.30;;;1.50;;
8317;SDS011;4196;48.926;8.964;2023-03-15T08:34:26;3.80;;;1.50;;
8317;SDS011;4196;48.926;8.964;2023-03-15T08:37:13;1.90;;;1.70;;
8317;SDS011;4196;48.926;8.964;2023-03-15T08:39:59;2.00;;;1.03;;
8317;SDS011;4196;48.926;8.964;2023-03-15T08:42:54;1.17;;;1.00;;
8317;SDS011;4196;48.926;8.964;2023-03-15T08:45:41;3.70;;;1.30;;
8317;SDS011;4196;48.926;8.964;2023-03-15T08:48:45;1.57;;;0.97;;
8317;SDS011;4196;48.926;8.964;2023-03-15T08:51:31;3.17;;;1.40;;
8317;SDS011;4196;48.926;8.964;2023-03-15T08:54:18;1.63;;;1.00;;
8317;SDS011;4196;48.926;8.964;2023-03-15T08:57:06;2.90;;;1.30;;
8317;SDS011;4196;48.926;8.964;2023-03-15T08:59:52;5.10;;;1.20;;
8317;SDS011;4196;48.926;8.964;2023-03-15T09:02:39;2.67;;;1.17;;
8317;SDS011;4196;48.926;8.964;2023-03-15T09:05:26;1.80;;;1.07;;
8317;SDS011;4196;48.926;8.964;2023-03-15T09:08:13;2.17;;;1.20;;
8317;SDS011;4196;48.926;8.964;2023-03-15T09:11:02;3.70;;;1.40;;
8317;SDS011;4196;48.926;8.964;2023-03-15T09:13:48;4.80;;;1.50;;
8317;SDS011;4196;48.926;8.964;2023-03-15T09:16:35;9.40;;;2.07;;
8317;SDS011;4196;48.926;8.964;2023-03-15T09:19:21;3.87;;;1.30;;
8317;SDS011;4196;48.926;8.964;2023-03-15T09:22:08;4.63;;;1.40;;
8317;SDS011;4196;48.926;8.964;2023-03-15T09:25:08;4.73;;;1.67;;
8317;SDS011;4196;48.926;8.964;2023-03-15T09:27:55;2.33;;;1.07;;
8317;SDS011;4196;48.926;8.964;2023-03-15T09:30:42;2.87;;;1.30;;
8317;SDS011;4196;48.926;8.964;2023-03-15T09:33:28;4.93;;;1.10;;
8317;SDS011;4196;48.926;8.964;2023-03-15T09:36:15;4.50;;;0.80;;
8317;SDS011;4196;48.926;8.964;2023-03-15T09:39:01;3.20;;;0.90;;
8317;SDS011;4196;48.926;8.964;2023-03-15T09:41:49;1.70;;;0.90;;
8317;SDS011;4196;48.926;8.964;2023-03-15T09:44:49;5.50;;;1.20;;
8317;SDS011;4196;48.926;8.964;2023-03-15T09:50:53;3.23;;;0.90;;
8317;SDS011;4196;48.926;8.964;2023-03-15T09:56:42;2.63;;;1.30;;
8317;SDS011;4196;48.926;8.964;2023-03-15T09:59:51;4.10;;;1.90;;
8317;SDS011;4196;48.926;8.964;2023-03-15T10:02:46;2.97;;;1.60;;
8317;SDS011;4196;48.926;8.964;2023-03-15T10:05:42;2.73;;;1.00;;
8317;SDS011;4196;48.926;8.964;2023-03-15T10:08:32;3.07;;;0.80;;
8317;SDS011;4196;48.926;8.964;2023-03-15T10:11:22;2.40;;;1.57;;
8317;SDS011;4196;48.926;8.964;2023-03-15T10:20:44;2.20;;;0.90;;
8317;SDS011;4196;48.926;8.964;2023-03-15T10:23:40;2.03;;;1.30;;
8317;SDS011;4196;48.926;8.964;2023-03-15T10:26:31;3.03;;;1.53;;
8317;SDS011;4196;48.926;8.964;2023-03-15T10:29:22;2.60;;;0.90;;
8317;SDS011;4196;48.926;8.964;2023-03-15T10:32:16;1.30;;;0.70;;
8317;SDS011;4196;48.926;8.964;2023-03-15T10:35:10;0.97;;;0.87;;
8317;SDS011;4196;48.926;8.964;2023-03-15T10:38:00;1.60;;;0.80;;
8317;SDS011;4196;48.926;8.964;2023-03-15T10:40:48;1.43;;;0.73;;
8317;SDS011;4196;48.926;8.964;2023-03-15T10:43:37;2.10;;;0.97;;
8317;SDS011;4196;48.926;8.964;2023-03-15T10:46:25;1.23;;;0.93;;
8317;SDS011;4196;48.926;8.964;2023-03-15T10:49:13;1.50;;;0.83;;
8317;SDS011;4196;48.926;8.964;2023-03-15T10:52:01;0.60;;;0.60;;
8317;SDS011;4196;48.926;8.964;2023-03-15T10:54:49;2.40;;;0.97;;
8317;SDS011;4196;48.926;8.964;2023-03-15T10:57:51;1.13;;;0.60;;
8317;SDS011;4196;48.926;8.964;2023-03-15T11:00:43;3.40;;;1.03;;
8317;SDS011;4196;48.926;8.964;2023-03-15T11:03:36;1.40;;;1.30;;
8317;SDS011;4196;48.926;8.964;2023-03-15T11:06:24;0.50;;;0.50;;
8317;SDS011;4196;48.926;8.964;2023-03-15T11:09:15;1.07;;;0.80;;
8317;SDS011;4196;48.926;8.964;2023-03-15T11:12:04;2.17;;;0.80;;
8317;SDS011;4196;48.926;8.964;2023-03-15T11:14:56;2.90;;;1.40;;
8317;SDS011;4196;48.926;8.964;2023-03-15T11:17:47;1.77;;;1.10;;
8317;SDS011;4196;48.926;8.964;2023-03-15T11:20:38;2.27;;;1.23;;
8317;SDS011;4196;48.926;8.964;2023-03-15T11:23:27;1.80;;;1.17;;
8317;SDS011;4196;48.926;8.964;2023-03-15T11:26:18;3.40;;;1.50;;
8317;SDS011;4196;48.926;8.964;2023-03-15T11:29:23;1.17;;;1.00;;
8317;SDS011;4196;48.926;8.964;2023-03-15T11:32:29;1.13;;;1.10;;
8317;SDS011;4196;48.926;8.964;2023-03-15T11:35:52;3.90;;;1.47;;
8317;SDS011;4196;48.926;8.964;2023-03-15T11:38:36;1.63;;;1.30;;
8317;SDS011;4196;48.926;8.964;2023-03-15T11:41:32;2.27;;;1.97;;
8317;SDS011;4196;48.926;8.964;2023-03-15T11:44:36;2.20;;;1.40;;
8317;SDS011;4196;48.926;8.964;2023-03-15T11:47:27;2.93;;;1.50;;
8317;SDS011;4196;48.926;8.964;2023-03-15T11:50:20;1.50;;;1.17;;
8317;SDS011;4196;48.926;8.964;2023-03-15T11:53:09;5.57;;;2.23;;
8317;SDS011;4196;48.926;8.964;2023-03-15T11:56:02;10.50;;;1.83;;
8317;SDS011;4196;48.926;8.964;2023-03-15T11:59:07;4.40;;;1.50;;
8317;SDS011;4196;48.926;8.964;2023-03-15T12:01:59;2.53;;;1.70;;
8317;SDS011;4196;48.926;8.964;2023-03-15T12:05:06;2.10;;;1.67;;
8317;SDS011;4196;48.926;8.964;2023-03-15T12:08:18;3.33;;;1.80;;
8317;SDS011;4196;48.926;8.964;2023-03-15T12:14:24;1.83;;;1.47;;
8317;SDS011;4196;48.926;8.964;2023-03-15T12:29:00;2.70;;;1.47;;
8317;SDS011;4196;48.926;8.964;2023-03-15T12:34:48;3.77;;;1.43;;
8317;SDS011;4196;48.926;8.964;2023-03-15T12:43:44;2.87;;;1.10;;
8317;SDS011;4196;48.926;8.964;2023-03-15T12:49:31;2.60;;;1.40;;
8317;SDS011;4196;48.926;8.964;2023-03-15T12:52:37;3.17;;;1.40;;
8317;SDS011;4196;48.926;8.964;2023-03-15T12:55:28;1.50;;;1.40;;
8317;SDS011;4196;48.926;8.964;2023-03-15T12:58:19;3.00;;;1.43;;
8317;SDS011;4196;48.926;8.964;2023-03-15T13:01:11;6.07;;;1.67;;
8317;SDS011;4196;48.926;8.964;2023-03-15T13:04:01;1.77;;;1.37;;
8317;SDS011;4196;48.926;8.964;2023-03-15T13:13:24;1.50;;;1.40;;
8317;SDS011;4196;48.926;8.964;2023-03-15T13:19:22;3.03;;;1.73;;
8317;SDS011;4196;48.926;8.964;2023-03-15T13:25:19;1.97;;;1.40;;
8317;SDS011;4196;48.926;8.964;2023-03-15T13:28:20;2.90;;;1.27;;
8317;SDS011;4196;48.926;8.964;2023-03-15T13:31:11;1.93;;;1.20;;
8317;SDS011;4196;48.926;8.964;2023-03-15T13:34:16;1.47;;;1.00;;
8317;SDS011;4196;48.926;8.964;2023-03-15T13:37:10;4.93;;;1.60;;
8317;SDS011;4196;48.926;8.964;2023-03-15T13:40:01;1.47;;;1.30;;
8317;SDS011;4196;48.926;8.964;2023-03-15T13:42:53;3.63;;;2.27;;
8317;SDS011;4196;48.926;8.964;2023-03-15T13:45:45;1.20;;;1.10;;
8317;SDS011;4196;48.926;8.964;2023-03-15T13:48:33;1.60;;;1.50;;
8317;SDS011;4196;48.926;8.964;2023-03-15T13:51:29;3.00;;;1.60;;
8317;SDS011;4196;48.926;8.964;2023-03-15T13:54:19;3.57;;;3.27;;
8317;SDS011;4196;48.926;8.964;2023-03-15T14:00:14;2.70;;;1.77;;
8317;SDS011;4196;48.926;8.964;2023-03-15T14:03:06;2.23;;;2.00;;
8317;SDS011;4196;48.926;8.964;2023-03-15T14:05:58;1.70;;;1.60;;
8317;SDS011;4196;48.926;8.964;2023-03-15T14:08:45;1.47;;;1.27;;
8317;SDS011;4196;48.926;8.964;2023-03-15T14:11:32;3.30;;;1.60;;
8317;SDS011;4196;48.926;8.964;2023-03-15T14:14:22;2.73;;;1.70;;
8317;SDS011;4196;48.926;8.964;2023-03-15T14:17:49;2.40;;;1.93;;
8317;SDS011;4196;48.926;8.964;2023-03-15T14:20:39;2.10;;;1.30;;
8317;SDS011;4196;48.926;8.964;2023-03-15T14:23:28;1.97;;;1.73;;
8317;SDS011;4196;48.926;8.964;2023-03-15T14:26:20;2.70;;;1.60;;
8317;SDS011;4196;48.926;8.964;2023-03-15T14:29:14;1.97;;;1.43;;
8317;SDS011;4196;48.926;8.964;2023-03-15T14:32:05;3.63;;;2.30;;
8317;SDS011;4196;48.926;8.964;2023-03-15T14:38:20;2.13;;;1.50;;
8317;SDS011;4196;48.926;8.964;2023-03-15T14:41:28;2.47;;;1.40;;
8317;SDS011;4196;48.926;8.964;2023-03-15T14:44:18;2.33;;;1.30;;
8317;SDS011;4196;48.926;8.964;2023-03-15T14:47:10;1.90;;;1.20;;
8317;SDS011;4196;48.926;8.964;2023-03-15T14:49:59;1.87;;;0.93;;
8317;SDS011;4196;48.926;8.964;2023-03-15T14:52:46;1.20;;;1.10;;
8317;SDS011;4196;48.926;8.964;2023-03-15T14:55:35;1.40;;;1.10;;
8317;SDS011;4196;48.926;8.964;2023-03-15T14:58:23;3.87;;;2.10;;
8317;SDS011;4196;48.926;8.964;2023-03-15T15:01:13;1.23;;;1.00;;
8317;SDS011;4196;48.926;8.964;2023-03-15T15:04:03;1.90;;;1.30;;
8317;SDS011;4196;48.926;8.964;2023-03-15T15:06:49;2.17;;;1.90;;
8317;SDS011;4196;48.926;8.964;2023-03-15T15:09:36;4.93;;;2.50;;
8317;SDS011;4196;48.926;8.964;2023-03-15T15:12:25;3.57;;;1.90;;
8317;SDS011;4196;48.926;8.964;2023-03-15T15:15:18;6.67;;;4.27;;
8317;SDS011;4196;48.926;8.964;2023-03-15T15:18:06;2.63;;;1.60;;
8317;SDS011;4196;48.926;8.964;2023-03-15T15:20:53;6.77;;;3.97;;
8317;SDS011;4196;48.926;8.964;2023-03-15T15:23:41;3.23;;;2.23;;
8317;SDS011;4196;48.926;8.964;2023-03-15T15:26:42;2.03;;;1.80;;
8317;SDS011;4196;48.926;8.964;2023-03-15T15:29:29;2.97;;;1.53;;
8317;SDS011;4196;48.926;8.964;2023-03-15T15:32:15;3.97;;;1.70;;
8317;SDS011;4196;48.926;8.964;2023-03-15T15:35:02;2.07;;;1.37;;
8317;SDS011;4196;48.926;8.964;2023-03-15T15:37:49;2.33;;;1.67;;
8317;SDS011;4196;48.926;8.964;2023-03-15T15:40:37;2.37;;;1.77;;
8317;SDS011;4196;48.926;8.964;2023-03-15T15:43:24;2.73;;;2.50;;
8317;SDS011;4196;48.926;8.964;2023-03-15T15:46:10;2.50;;;2.30;;
8317;SDS011;4196;48.926;8.964;2023-03-15T15:48:58;3.80;;;1.80;;
8317;SDS011;4196;48.926;8.964;2023-03-15T15:51:44;2.30;;;1.60;;
8317;SDS011;4196;48.926;8.964;2023-03-15T15:54:34;3.37;;;2.10;;
8317;SDS011;4196;48.926;8.964;2023-03-15T15:57:20;3.97;;;2.97;;
8317;SDS011;4196;48.926;8.964;2023-03-15T16:00:18;3.03;;;2.53;;
8317;SDS011;4196;48.926;8.964;2023-03-15T16:03:12;4.07;;;2.97;;
8317;SDS011;4196;48.926;8.964;2023-03-15T16:06:00;2.33;;;1.80;;
8317;SDS011;4196;48.926;8.964;2023-03-15T16:08:47;4.00;;;2.30;;
8317;SDS011;4196;48.926;8.964;2023-03-15T16:11:35;2.60;;;2.40;;
8317;SDS011;4196;48.926;8.964;2023-03-15T16:14:22;5.73;;;3.53;;
8317;SDS011;4196;48.926;8.964;2023-03-15T16:17:18;3.63;;;2.90;;
8317;SDS011;4196;48.926;8.964;2023-03-15T16:20:08;2.60;;;2.33;;
8317;SDS011;4196;48.926;8.964;2023-03-15T16:22:56;2.60;;;2.40;;
8317;SDS011;4196;48.926;8.964;2023-03-15T16:25:45;3.93;;;2.57;;
8317;SDS011;4196;48.926;8.964;2023-03-15T16:28:34;11.33;;;5.47;;
8317;SDS011;4196;48.926;8.964;2023-03-15T16:31:20;3.10;;;2.60;;
8317;SDS011;4196;48.926;8.964;2023-03-15T16:34:08;8.40;;;3.57;;
8317;SDS011;4196;48.926;8.964;2023-03-15T16:36:57;4.23;;;2.57;;
8317;SDS011;4196;48.926;8.964;2023-03-15T16:39:44;4.23;;;3.03;;
8317;SDS011;4196;48.926;8.964;2023-03-15T16:42:32;1.80;;;1.70;;
8317;SDS011;4196;48.926;8.964;2023-03-15T16:45:19;5.10;;;3.43;;
8317;SDS011;4196;48.926;8.964;2023-03-15T16:48:06;2.77;;;2.27;;
8317;SDS011;4196;48.926;8.964;2023-03-15T16:50:53;3.30;;;2.20;;
8317;SDS011;4196;48.926;8.964;2023-03-15T16:53:40;3.67;;;2.90;;
8317;SDS011;4196;48.926;8.964;2023-03-15T16:56:34;3.37;;;1.77;;
8317;SDS011;4196;48.926;8.964;2023-03-15T16:59:21;5.07;;;2.30;;
8317;SDS011;4196;48.926;8.964;2023-03-15T17:02:29;2.50;;;1.87;;
8317;SDS011;4196;48.926;8.964;2023-03-15T17:05:14;3.97;;;3.37;;
8317;SDS011;4196;48.926;8.964;2023-03-15T17:08:04;2.07;;;1.83;;
8317;SDS011;4196;48.926;8.964;2023-03-15T17:10:50;3.67;;;3.07;;
8317;SDS011;4196;48.926;8.964;2023-03-15T17:13:38;3.53;;;2.93;;
8317;SDS011;4196;48.926;8.964;2023-03-15T17:16:26;6.47;;;3.53;;
8317;SDS011;4196;48.926;8.964;2023-03-15T17:19:13;4.53;;;2.70;;
8317;SDS011;4196;48.926;8.964;2023-03-15T17:22:00;5.80;;;4.43;;
8317;SDS011;4196;48.926;8.964;2023-03-15T17:24:46;3.60;;;2.60;;
8317;SDS011;4196;48.926;8.964;2023-03-15T17:27:35;6.93;;;3.27;;
8317;SDS011;4196;48.926;8.964;2023-03-15T17:30:27;3.23;;;2.90;;
8317;SDS011;4196;48.926;8.964;2023-03-15T17:33:15;3.80;;;2.80;;
8317;SDS011;4196;48.926;8.964;2023-03-15T17:36:01;6.53;;;3.27;;
8317;SDS011;4196;48.926;8.964;2023-03-15T17:38:52;3.77;;;2.87;;
8317;SDS011;4196;48.926;8.964;2023-03-15T17:41:39;4.90;;;2.93;;
8317;SDS011;4196;48.926;8.964;2023-03-15T17:44:31;3.27;;;2.70;;
8317;SDS011;4196;48.926;8.964;2023-03-15T17:47:18;4.40;;;2.70;;
8317;SDS011;4196;48.926;8.964;2023-03-15T17:50:05;5.40;;;3.13;;
8317;SDS011;4196;48.926;8.964;2023-03-15T17:52:53;4.87;;;3.17;;
8317;SDS011;4196;48.926;8.964;2023-03-15T17:55:41;5.03;;;3.00;;
8317;SDS011;4196;48.926;8.964;2023-03-15T17:58:27;5.93;;;3.60;;
8317;SDS011;4196;48.926;8.964;2023-03-15T18:01:18;4.20;;;3.13;;
8317;SDS011;4196;48.926;8.964;2023-03-15T18:04:12;4.97;;;3.57;;
8317;SDS011;4196;48.926;8.964;2023-03-15T18:06:59;7.80;;;3.83;;
8317;SDS011;4196;48.926;8.964;2023-03-15T18:09:46;6.70;;;3.73;;
8317;SDS011;4196;48.926;8.964;2023-03-15T18:12:33;7.17;;;3.70;;
8317;SDS011;4196;48.926;8.964;2023-03-15T18:15:21;5.93;;;4.10;;
8317;SDS011;4196;48.926;8.964;2023-03-15T18:18:08;8.00;;;4.37;;
8317;SDS011;4196;48.926;8.964;2023-03-15T18:20:55;11.07;;;5.77;;
8317;SDS011;4196;48.926;8.964;2023-03-15T18:23:42;6.37;;;4.43;;
8317;SDS011;4196;48.926;8.964;2023-03-15T18:26:29;8.50;;;5.00;;
8317;SDS011;4196;48.926;8.964;2023-03-15T18:29:15;8.30;;;4.43;;
8317;SDS011;4196;48.926;8.964;2023-03-15T18:32:02;9.30;;;5.00;;
8317;SDS011;4196;48.926;8.964;2023-03-15T18:34:49;6.73;;;5.30;;
8317;SDS011;4196;48.926;8.964;2023-03-15T18:37:35;9.03;;;6.20;;
8317;SDS011;4196;48.926;8.964;2023-03-15T18:40:22;11.13;;;6.90;;
8317;SDS011;4196;48.926;8.964;2023-03-15T18:43:11;14.70;;;7.27;;
8317;SDS011;4196;48.926;8.964;2023-03-15T18:45:59;9.77;;;5.80;;
8317;SDS011;4196;48.926;8.964;2023-03-15T18:48:46;8.73;;;6.00;;
8317;SDS011;4196;48.926;8.964;2023-03-15T18:51:32;12.07;;;6.00;;